createdAt,value
2019-03-04T00:01:23.538Z,91.80
2019-03-04T00:03:56.857Z,91.80
2019-03-04T00:06:29.967Z,91.70
2019-03-04T00:09:05.248Z,91.60
2019-03-04T00:11:40.003Z,91.50
2019-03-04T00:14:13.207Z,91.60
2019-03-04T00:16:46.178Z,91.80
2019-03-04T00:19:19.187Z,91.60
2019-03-04T00:21:52.110Z,91.40
2019-03-04T00:24:26.014Z,91.10
2019-03-04T00:26:58.997Z,91.00
2019-03-04T00:29:32.171Z,90.70
2019-03-04T00:32:04.925Z,90.50
2019-03-04T00:34:38.159Z,90.20
2019-03-04T00:37:11.220Z,89.80
2019-03-04T00:39:44.448Z,89.80
2019-03-04T00:42:17.299Z,89.50
2019-03-04T00:44:50.543Z,89.30
2019-03-04T00:47:23.365Z,89.30
2019-03-04T00:49:57.039Z,88.90
2019-03-04T00:52:30.188Z,88.30
2019-03-04T00:55:04.665Z,88.40
2019-03-04T00:57:37.429Z,88.40
2019-03-04T01:00:15.277Z,88.50
2019-03-04T01:02:48.095Z,88.00
2019-03-04T01:05:20.999Z,87.80
2019-03-04T01:07:56.301Z,88.10
2019-03-04T01:10:29.092Z,87.90
2019-03-04T01:13:02.013Z,87.80
2019-03-04T01:15:35.100Z,87.90
2019-03-04T01:18:08.135Z,88.20
2019-03-04T01:20:40.995Z,88.60
2019-03-04T01:23:13.837Z,88.20
2019-03-04T01:25:46.939Z,88.80
2019-03-04T01:28:20.014Z,88.90
2019-03-04T01:30:52.960Z,89.20
2019-03-04T01:33:25.951Z,89.10
2019-03-04T01:35:58.785Z,89.30
2019-03-04T01:38:31.844Z,89.40
2019-03-04T01:41:04.684Z,89.60
2019-03-04T01:43:37.750Z,90.00
2019-03-04T01:46:10.644Z,90.00
2019-03-04T01:48:43.424Z,90.10
2019-03-04T01:51:16.335Z,90.30
2019-03-04T01:53:49.288Z,90.30
2019-03-04T01:56:22.195Z,90.40
2019-03-04T01:58:55.176Z,90.50
2019-03-04T02:01:27.968Z,90.60
2019-03-04T02:04:00.991Z,90.70
2019-03-04T02:06:33.789Z,90.90
2019-03-04T02:09:06.747Z,91.00
2019-03-04T02:11:41.401Z,91.10
2019-03-04T02:14:14.316Z,90.90
2019-03-04T02:16:47.280Z,91.00
2019-03-04T02:19:20.253Z,91.60
2019-03-04T02:21:53.032Z,91.50
2019-03-04T02:24:26.432Z,91.40
2019-03-04T02:26:59.633Z,91.20
2019-03-04T02:29:32.706Z,91.00
2019-03-04T02:32:05.804Z,91.00
2019-03-04T02:34:38.767Z,90.90
2019-03-04T02:37:11.612Z,90.80
2019-03-04T02:39:44.626Z,90.70
2019-03-04T02:42:17.614Z,90.70
2019-03-04T02:44:50.447Z,90.70
2019-03-04T02:47:23.216Z,90.70
2019-03-04T02:49:56.156Z,90.50
2019-03-04T02:52:29.121Z,90.40
2019-03-04T02:55:01.937Z,90.10
2019-03-04T02:57:34.805Z,90.00
2019-03-04T03:00:08.738Z,89.70
2019-03-04T03:02:41.809Z,89.20
2019-03-04T03:05:14.665Z,89.00
2019-03-04T03:07:47.544Z,88.70
2019-03-04T03:10:20.371Z,88.00
2019-03-04T03:12:53.351Z,88.30
2019-03-04T03:15:26.357Z,87.70
2019-03-04T03:17:59.328Z,87.60
2019-03-04T03:20:32.158Z,87.80
2019-03-04T03:23:05.126Z,87.70
2019-03-04T03:25:37.982Z,88.00
2019-03-04T03:28:11.122Z,88.10
2019-03-04T03:30:44.129Z,88.10
2019-03-04T03:33:17.221Z,88.20
2019-03-04T03:35:51.091Z,88.10
2019-03-04T03:38:24.131Z,88.50
2019-03-04T03:40:56.886Z,88.60
2019-03-04T03:43:29.762Z,88.90
2019-03-04T03:46:02.752Z,89.10
2019-03-04T03:48:35.757Z,89.60
2019-03-04T03:51:08.707Z,90.00
2019-03-04T03:53:41.691Z,90.10
2019-03-04T03:56:14.765Z,90.40
2019-03-04T03:58:47.937Z,90.60
2019-03-04T04:01:20.885Z,90.80
2019-03-04T04:03:53.828Z,90.90
2019-03-04T04:06:26.742Z,91.00
2019-03-04T04:08:59.648Z,91.00
2019-03-04T04:11:32.493Z,91.00
2019-03-04T04:14:05.426Z,91.00
2019-03-04T04:16:38.324Z,91.10
2019-03-04T04:19:11.337Z,90.90
2019-03-04T04:21:44.271Z,90.80
2019-03-04T04:24:17.133Z,90.60
2019-03-04T04:26:50.951Z,90.30
2019-03-04T04:29:23.849Z,90.30
2019-03-04T04:31:57.133Z,90.10
2019-03-04T04:34:29.938Z,89.90
2019-03-04T04:37:02.901Z,90.00
2019-03-04T04:39:35.813Z,90.00
2019-03-04T04:42:08.568Z,90.10
2019-03-04T04:44:41.353Z,90.30
2019-03-04T04:47:14.232Z,90.50
2019-03-04T04:49:47.087Z,90.50
2019-03-04T04:52:19.989Z,90.20
2019-03-04T04:54:52.753Z,90.60
2019-03-04T04:57:25.589Z,90.50
2019-03-04T04:59:58.505Z,90.70
2019-03-04T05:02:31.337Z,90.90
2019-03-04T05:05:05.129Z,90.90
2019-03-04T05:07:37.931Z,90.90
2019-03-04T05:10:13.398Z,90.80
2019-03-04T05:12:46.402Z,90.60
2019-03-04T05:15:20.129Z,90.40
2019-03-04T05:17:53.072Z,90.40
2019-03-04T05:20:25.958Z,90.40
2019-03-04T05:22:58.935Z,90.20
2019-03-04T05:25:31.710Z,90.20
2019-03-04T05:28:04.475Z,90.30
2019-03-04T05:30:37.318Z,90.10
2019-03-04T05:33:10.404Z,89.90
2019-03-04T05:35:43.242Z,89.90
2019-03-04T05:38:16.102Z,89.70
2019-03-04T05:40:48.923Z,88.90
2019-03-04T05:43:21.827Z,88.90
2019-03-04T05:45:54.601Z,88.70
2019-03-04T05:48:27.463Z,88.60
2019-03-04T05:51:00.496Z,88.20
2019-03-04T05:53:33.400Z,87.90
2019-03-04T05:56:07.133Z,87.60
2019-03-04T05:58:40.090Z,87.30
2019-03-04T06:01:24.488Z,87.30
2019-03-04T06:04:02.553Z,87.80
2019-03-04T06:06:54.232Z,87.50
2019-03-04T06:09:27.236Z,87.40
2019-03-04T06:11:59.981Z,87.30
2019-03-04T06:14:33.064Z,86.90
2019-03-04T06:17:05.894Z,85.70
2019-03-04T06:19:38.829Z,84.30
2019-03-04T06:22:11.718Z,84.40
2019-03-04T06:24:44.668Z,84.20
2019-03-04T06:27:17.804Z,83.40
2019-03-04T06:29:50.560Z,83.60
2019-03-04T06:32:23.498Z,83.60
2019-03-04T06:34:56.294Z,83.90
2019-03-04T06:37:29.348Z,83.90
2019-03-04T06:40:02.249Z,83.80
2019-03-04T06:42:36.397Z,81.50
2019-03-04T06:45:11.953Z,86.10
2019-03-04T06:47:45.077Z,89.60
2019-03-04T06:50:49.292Z,90.40
2019-03-04T06:54:03.900Z,91.40
2019-03-04T06:57:27.858Z,91.60
2019-03-04T07:00:50.563Z,92.90
2019-03-04T07:03:32.148Z,94.00
2019-03-04T07:06:05.119Z,97.20
2019-03-04T07:09:11.760Z,99.10
2019-03-04T07:11:52.359Z,99.30
2019-03-04T07:14:26.266Z,99.80
2019-03-04T07:16:59.221Z,99.90
2019-03-04T07:19:37.033Z,99.40
2019-03-04T07:22:11.099Z,99.80
2019-03-04T07:24:44.880Z,98.90
2019-03-04T07:27:17.814Z,98.10
2019-03-04T07:29:50.750Z,96.20
2019-03-04T07:32:23.818Z,94.40
2019-03-04T07:34:56.594Z,92.90
2019-03-04T07:37:29.425Z,91.80
2019-03-04T07:40:02.504Z,91.20
2019-03-04T07:42:35.394Z,90.90
2019-03-04T07:45:09.750Z,90.40
2019-03-04T07:47:42.489Z,90.10
2019-03-04T07:50:15.433Z,90.10
2019-03-04T07:52:55.951Z,90.20
2019-03-04T07:55:29.029Z,89.40
2019-03-04T07:58:01.920Z,88.70
2019-03-04T08:00:35.148Z,87.30
2019-03-04T08:03:08.106Z,87.80
2019-03-04T08:05:41.429Z,86.90
2019-03-04T08:08:14.285Z,84.70
2019-03-04T08:11:54.656Z,86.50
2019-03-04T08:14:27.626Z,84.40
2019-03-04T08:17:00.801Z,82.80
2019-03-04T08:19:34.697Z,83.40
2019-03-04T08:22:07.661Z,83.40
2019-03-04T08:24:41.821Z,83.30
2019-03-04T08:27:14.771Z,83.10
2019-03-04T08:29:47.951Z,82.70
2019-03-04T08:32:20.716Z,81.30
2019-03-04T08:34:53.648Z,82.30
2019-03-04T08:37:26.556Z,81.30
2019-03-04T08:39:59.841Z,81.40
2019-03-04T08:42:32.959Z,81.80
2019-03-04T08:45:06.747Z,81.90
2019-03-04T08:47:40.297Z,81.30
2019-03-04T08:50:13.774Z,79.60
2019-03-04T08:52:46.668Z,79.30
2019-03-04T08:55:19.909Z,79.70
2019-03-04T08:57:53.080Z,78.60
2019-03-04T09:00:27.255Z,77.70
2019-03-04T09:03:00.237Z,76.60
2019-03-04T09:05:33.216Z,77.80
2019-03-04T09:08:07.195Z,78.10
2019-03-04T09:10:40.302Z,77.50
2019-03-04T09:13:13.317Z,77.50
2019-03-04T09:15:46.432Z,77.70
2019-03-04T09:18:19.393Z,78.10
2019-03-04T09:20:52.166Z,76.80
2019-03-04T09:23:25.266Z,79.60
2019-03-04T09:26:02.406Z,79.10
2019-03-04T09:28:35.707Z,79.00
2019-03-04T09:31:21.642Z,77.60
2019-03-04T09:33:54.915Z,77.10
2019-03-04T09:36:27.886Z,76.10
2019-03-04T09:39:00.675Z,75.30
2019-03-04T09:41:33.744Z,74.90
2019-03-04T09:44:06.624Z,75.80
2019-03-04T09:46:39.861Z,75.80
2019-03-04T09:49:12.896Z,75.80
2019-03-04T09:51:45.921Z,76.10
2019-03-04T09:54:18.782Z,76.60
2019-03-04T09:56:51.826Z,76.00
2019-03-04T09:59:24.917Z,76.30
2019-03-04T10:02:01.607Z,75.90
2019-03-04T10:05:28.498Z,77.40
2019-03-04T10:08:36.378Z,77.40
2019-03-04T10:12:18.716Z,77.70
2019-03-04T10:15:36.194Z,77.70
2019-03-04T10:18:34.899Z,77.70
2019-03-04T10:21:43.307Z,76.40
2019-03-04T10:25:12.038Z,76.30
2019-03-04T10:28:32.371Z,74.70
2019-03-04T10:31:45.918Z,74.50
2019-03-04T10:34:59.566Z,74.40
2019-03-04T10:38:11.348Z,74.90
2019-03-04T10:41:13.088Z,76.50
2019-03-04T10:44:11.157Z,77.20
2019-03-04T10:46:58.164Z,78.90
2019-03-04T10:49:33.784Z,78.80
2019-03-04T10:52:07.079Z,78.80
2019-03-04T10:54:40.027Z,79.60
2019-03-04T10:57:13.201Z,79.90
2019-03-04T10:59:46.077Z,79.70
2019-03-04T11:02:19.153Z,78.90
2019-03-04T11:04:52.063Z,79.10
2019-03-04T11:07:25.170Z,78.50
2019-03-04T11:09:58.057Z,79.10
2019-03-04T11:12:31.677Z,79.70
2019-03-04T11:15:08.168Z,79.60
2019-03-04T11:17:41.347Z,79.70
2019-03-04T11:20:14.374Z,79.80
2019-03-04T11:22:47.483Z,79.80
2019-03-04T11:25:20.458Z,79.50
2019-03-04T11:27:53.844Z,80.80
2019-03-04T11:30:29.158Z,81.70
2019-03-04T11:33:04.307Z,85.80
2019-03-04T11:35:37.383Z,87.00
2019-03-04T11:38:36.868Z,85.80
2019-03-04T11:41:12.300Z,85.80
2019-03-04T11:43:45.518Z,87.70
2019-03-04T11:46:21.345Z,87.80
2019-03-04T11:48:54.211Z,87.30
2019-03-04T11:51:26.983Z,88.40
2019-03-04T11:54:00.165Z,89.10
2019-03-04T11:56:33.032Z,88.30
2019-03-04T11:59:06.055Z,89.40
2019-03-04T12:01:42.424Z,91.80
2019-03-04T12:04:15.275Z,97.40
2019-03-04T12:06:48.365Z,99.30
2019-03-04T12:09:21.610Z,99.90
2019-03-04T12:11:54.508Z,99.90
2019-03-04T12:14:27.353Z,99.90
2019-03-04T12:17:00.134Z,99.90
2019-03-04T12:19:34.324Z,99.90
2019-03-04T12:22:07.648Z,99.90
2019-03-04T12:24:40.851Z,99.90
2019-03-04T12:27:13.954Z,99.90
2019-03-04T12:29:46.843Z,99.90
2019-03-04T12:32:27.715Z,99.90
2019-03-04T12:35:00.630Z,99.90
2019-03-04T12:37:33.463Z,99.90
2019-03-04T12:40:07.673Z,99.90
2019-03-04T12:42:40.520Z,99.90
2019-03-04T12:45:14.230Z,99.90
2019-03-04T12:47:47.201Z,99.90
2019-03-04T12:50:22.087Z,99.90
2019-03-04T12:52:55.199Z,99.90
2019-03-04T12:55:28.070Z,99.90
2019-03-04T12:58:01.111Z,99.90
2019-03-04T13:00:34.263Z,99.90
2019-03-04T13:03:15.963Z,99.90
2019-03-04T13:05:48.785Z,99.90
2019-03-04T13:08:21.815Z,99.90
2019-03-04T13:10:54.753Z,99.90
2019-03-04T13:13:27.947Z,99.90
2019-03-04T13:16:01.889Z,99.90
2019-03-04T13:18:34.874Z,99.90
2019-03-04T13:21:07.679Z,99.90
2019-03-04T13:23:40.554Z,99.90
2019-03-04T13:26:13.701Z,99.90
2019-03-04T13:28:46.753Z,99.90
2019-03-04T13:31:19.870Z,99.90
2019-03-04T13:33:53.091Z,99.90
2019-03-04T13:36:27.307Z,99.10
2019-03-04T13:39:00.211Z,97.90
2019-03-04T13:41:33.088Z,97.60
2019-03-04T13:44:06.209Z,97.10
2019-03-04T13:46:39.304Z,97.40
2019-03-04T13:49:12.271Z,97.60
2019-03-04T13:51:45.570Z,98.70
2019-03-04T13:54:18.559Z,98.80
2019-03-04T13:56:51.362Z,97.40
2019-03-04T13:59:25.405Z,96.50
2019-03-04T14:01:58.353Z,96.70
2019-03-04T14:04:31.326Z,96.90
2019-03-04T14:07:04.370Z,96.50
2019-03-04T14:09:37.201Z,96.00
2019-03-04T14:12:10.274Z,95.90
2019-03-04T14:14:43.241Z,95.20
2019-03-04T14:17:16.111Z,95.10
2019-03-04T14:19:49.087Z,94.80
2019-03-04T14:22:22.270Z,93.70
2019-03-04T14:24:55.132Z,93.00
2019-03-04T14:27:28.242Z,92.20
2019-03-04T14:30:01.302Z,91.90
2019-03-04T14:32:34.376Z,93.00
2019-03-04T14:35:07.553Z,92.20
2019-03-04T14:37:40.597Z,92.10
2019-03-04T14:40:16.497Z,89.50
2019-03-04T14:42:49.401Z,91.20
2019-03-04T14:45:23.218Z,90.00
2019-03-04T14:47:56.411Z,89.10
2019-03-04T14:50:29.466Z,87.60
2019-03-04T14:53:02.281Z,88.60
2019-03-04T14:55:35.409Z,86.30
2019-03-04T14:58:08.114Z,86.00
2019-03-04T15:00:41.691Z,88.00
2019-03-04T15:03:22.850Z,87.20
2019-03-04T15:05:49.422Z,86.50
2019-03-04T15:08:22.363Z,87.40
2019-03-04T15:10:55.415Z,83.80
2019-03-04T15:13:28.598Z,83.40
2019-03-04T15:16:04.431Z,83.60
2019-03-04T15:18:36.961Z,82.70
2019-03-04T15:21:10.006Z,82.40
2019-03-04T15:23:43.016Z,81.50
2019-03-04T15:26:16.510Z,80.80
2019-03-04T15:28:49.543Z,80.20
2019-03-04T15:31:22.388Z,80.20
2019-03-04T15:33:55.529Z,80.90
2019-03-04T15:36:28.626Z,80.50
2019-03-04T15:39:01.629Z,81.40
2019-03-04T15:41:40.346Z,81.00
2019-03-04T15:44:12.303Z,80.40
2019-03-04T15:46:45.520Z,80.70
2019-03-04T15:49:18.292Z,79.90
2019-03-04T15:51:52.263Z,81.00
2019-03-04T15:54:25.159Z,78.90
2019-03-04T15:57:01.623Z,78.80
2019-03-04T15:59:34.518Z,78.70
2019-03-04T16:02:08.726Z,78.70
2019-03-04T16:04:41.642Z,79.20
2019-03-04T16:07:15.180Z,77.60
2019-03-04T16:09:48.093Z,77.70
2019-03-04T16:12:22.633Z,78.60
2019-03-04T16:14:55.733Z,78.60
2019-03-04T16:17:28.726Z,78.50
2019-03-04T16:20:01.491Z,78.40
2019-03-04T16:22:35.792Z,78.80
2019-03-04T16:25:21.236Z,79.00
2019-03-04T16:28:26.644Z,79.30
2019-03-04T16:30:59.820Z,78.20
2019-03-04T16:33:33.909Z,78.60
2019-03-04T16:36:06.957Z,78.30
2019-03-04T16:38:40.104Z,78.10
2019-03-04T16:41:13.228Z,78.70
2019-03-04T16:43:46.302Z,79.50
2019-03-04T16:46:19.643Z,79.30
2019-03-04T16:48:52.675Z,79.70
2019-03-04T16:51:25.524Z,80.20
2019-03-04T16:53:58.633Z,80.20
2019-03-04T16:56:31.708Z,81.10
2019-03-04T16:59:04.620Z,80.50
2019-03-04T17:01:37.527Z,79.40
2019-03-04T17:04:10.595Z,79.40
2019-03-04T17:06:43.638Z,80.00
2019-03-04T17:09:18.720Z,79.00
2019-03-04T17:11:51.638Z,78.80
2019-03-04T17:14:24.515Z,78.90
2019-03-04T17:16:57.612Z,78.90
2019-03-04T17:19:30.628Z,79.80
2019-03-04T17:22:03.540Z,80.50
2019-03-04T17:24:36.504Z,80.70
2019-03-04T17:27:09.485Z,81.10
2019-03-04T17:29:42.375Z,79.90
2019-03-04T17:32:15.304Z,79.60
2019-03-04T17:34:49.326Z,79.70
2019-03-04T17:37:22.122Z,80.10
2019-03-04T17:39:55.100Z,79.80
2019-03-04T17:42:28.145Z,79.90
2019-03-04T17:45:02.094Z,79.90
2019-03-04T17:47:37.213Z,81.10
2019-03-04T17:50:12.279Z,80.40
2019-03-04T17:52:45.930Z,79.50
2019-03-04T17:55:19.205Z,79.60
2019-03-04T17:57:52.088Z,79.70
2019-03-04T18:00:25.120Z,79.20
2019-03-04T18:02:58.243Z,78.70
2019-03-04T18:05:31.175Z,78.50
2019-03-04T18:08:04.419Z,79.40
2019-03-04T18:10:37.309Z,79.80
2019-03-04T18:13:11.174Z,80.20
2019-03-04T18:15:44.381Z,79.70
2019-03-04T18:18:17.247Z,80.20
2019-03-04T18:20:50.229Z,79.50
2019-03-04T18:23:23.239Z,79.40
2019-03-04T18:26:12.615Z,79.30
2019-03-04T18:29:38.941Z,80.10
2019-03-04T18:32:45.196Z,79.70
2019-03-04T18:35:43.186Z,80.40
2019-03-04T18:38:53.790Z,80.60
2019-03-04T18:41:52.473Z,81.20
2019-03-04T18:44:59.671Z,81.20
2019-03-04T18:47:56.200Z,82.00
2019-03-04T18:50:29.034Z,82.00
2019-03-04T18:53:02.036Z,82.60
2019-03-04T18:55:37.471Z,82.80
2019-03-04T18:58:10.954Z,83.60
2019-03-04T19:00:44.170Z,82.70
2019-03-04T19:03:17.459Z,82.80
2019-03-04T19:05:50.672Z,83.30
2019-03-04T19:08:23.644Z,83.50
2019-03-04T19:10:57.564Z,83.50
2019-03-04T19:13:30.428Z,83.90
2019-03-04T19:16:03.442Z,84.00
2019-03-04T19:18:36.358Z,84.20
2019-03-04T19:21:09.584Z,85.00
2019-03-04T19:23:42.682Z,83.80
2019-03-04T19:26:16.491Z,83.80
2019-03-04T19:28:49.406Z,84.00
2019-03-04T19:31:22.811Z,84.20
2019-03-04T19:33:55.956Z,84.10
2019-03-04T19:36:49.459Z,84.50
2019-03-04T19:39:22.593Z,84.50
2019-03-04T19:41:55.459Z,85.10
2019-03-04T19:44:28.254Z,85.20
2019-03-04T19:47:01.075Z,85.60
2019-03-04T19:49:34.601Z,85.30
2019-03-04T19:52:07.515Z,85.50
2019-03-04T19:54:40.565Z,85.40
2019-03-04T19:57:13.739Z,85.60
2019-03-04T19:59:46.966Z,85.70
2019-03-04T20:02:21.327Z,86.00
2019-03-04T20:04:54.211Z,86.00
2019-03-04T20:07:27.195Z,86.40
2019-03-04T20:10:00.339Z,86.30
2019-03-04T20:12:33.222Z,86.20
2019-03-04T20:15:08.845Z,86.50
2019-03-04T20:17:42.029Z,86.30
2019-03-04T20:20:15.112Z,86.60
2019-03-04T20:22:48.477Z,87.00
2019-03-04T20:25:21.600Z,87.30
2019-03-04T20:27:54.675Z,87.50
2019-03-04T20:30:27.746Z,87.60
2019-03-04T20:33:00.487Z,87.80
2019-03-04T20:35:33.602Z,88.10
2019-03-04T20:38:07.225Z,88.30
2019-03-04T20:40:40.050Z,88.10
2019-03-04T20:43:13.045Z,88.20
2019-03-04T20:45:46.191Z,88.40
2019-03-04T20:48:19.010Z,87.60
2019-03-04T20:50:51.986Z,87.50
2019-03-04T20:53:24.941Z,87.10
2019-03-04T20:55:57.931Z,87.00
2019-03-04T20:58:30.670Z,86.80
2019-03-04T21:01:04.651Z,87.30
2019-03-04T21:03:38.629Z,87.50
2019-03-04T21:06:11.943Z,89.10
2019-03-04T21:08:45.241Z,91.50
2019-03-04T21:11:19.637Z,92.30
2019-03-04T21:13:52.613Z,93.20
2019-03-04T21:16:25.877Z,93.70
2019-03-04T21:18:59.167Z,93.70
2019-03-04T21:21:31.937Z,95.30
2019-03-04T21:24:05.066Z,96.90
2019-03-04T21:26:41.340Z,97.70
2019-03-04T21:29:58.687Z,98.30
2019-03-04T21:32:56.816Z,98.70
2019-03-04T21:36:01.697Z,99.20
2019-03-04T21:38:34.627Z,99.40
2019-03-04T21:41:53.256Z,99.90
2019-03-04T21:45:27.370Z,99.90
2019-03-04T21:48:08.120Z,99.60
2019-03-04T21:50:49.528Z,99.20
2019-03-04T21:53:27.817Z,99.40
2019-03-04T21:56:10.902Z,99.80
2019-03-04T21:58:43.858Z,99.50
2019-03-04T22:01:21.542Z,99.30
2019-03-04T22:03:54.918Z,99.80
2019-03-04T22:06:28.112Z,99.90
2019-03-04T22:09:08.286Z,99.80
2019-03-04T22:11:42.889Z,99.40
2019-03-04T22:14:15.931Z,99.20
2019-03-04T22:16:49.656Z,98.70
2019-03-04T22:19:23.742Z,98.40
2019-03-04T22:21:56.791Z,97.70
2019-03-04T22:24:29.892Z,97.50
2019-03-04T22:27:02.902Z,97.50
2019-03-04T22:29:36.282Z,97.40
2019-03-04T22:32:09.519Z,97.00
2019-03-04T22:34:43.056Z,96.20
2019-03-04T22:37:16.025Z,95.60
2019-03-04T22:39:49.287Z,95.80
2019-03-04T22:42:22.291Z,95.40
2019-03-04T22:44:55.158Z,95.10
2019-03-04T22:47:28.383Z,94.20
2019-03-04T22:50:01.336Z,93.60
2019-03-04T22:52:34.289Z,94.10
2019-03-04T22:55:10.077Z,93.40
2019-03-04T22:57:43.064Z,93.20
2019-03-04T23:01:31.149Z,92.70
2019-03-04T23:04:24.562Z,92.90
2019-03-04T23:07:06.131Z,92.40
2019-03-04T23:10:04.049Z,92.20
2019-03-04T23:12:45.842Z,92.40
2019-03-04T23:15:19.339Z,92.10
2019-03-04T23:17:52.277Z,91.90
2019-03-04T23:20:25.484Z,91.80
2019-03-04T23:22:59.310Z,91.80
2019-03-04T23:25:32.537Z,91.70
2019-03-04T23:28:05.413Z,91.90
2019-03-04T23:30:38.359Z,91.80
2019-03-04T23:33:11.402Z,91.60
2019-03-04T23:35:44.123Z,91.80
2019-03-04T23:38:17.166Z,91.60
2019-03-04T23:40:50.304Z,91.60
2019-03-04T23:43:23.343Z,91.30
2019-03-04T23:45:56.235Z,91.40
2019-03-04T23:48:29.239Z,91.30
2019-03-04T23:51:02.472Z,91.30
2019-03-04T23:53:35.394Z,91.20
2019-03-04T23:56:08.326Z,90.80
2019-03-04T23:58:41.322Z,90.90
